createdAt,value
2018-12-10T00:00:37.546Z,97422.78
2018-12-10T00:03:13.756Z,97446.36
2018-12-10T00:05:44.632Z,97443.11
2018-12-10T00:08:13.604Z,97438.44
2018-12-10T00:10:42.413Z,97436.90
2018-12-10T00:13:11.317Z,97451.73
2018-12-10T00:15:40.236Z,97441.50
2018-12-10T00:18:09.116Z,97436.34
2018-12-10T00:20:37.973Z,97452.30
2018-12-10T00:23:06.881Z,97456.58
2018-12-10T00:25:36.975Z,97448.41
2018-12-10T00:28:05.900Z,97455.15
2018-12-10T00:30:34.888Z,97451.42
2018-12-10T00:33:03.771Z,97461.69
2018-12-10T00:35:32.701Z,97470.41
2018-12-10T00:38:01.559Z,97465.95
2018-12-10T00:40:30.443Z,97462.94
2018-12-10T00:42:59.353Z,97466.91
2018-12-10T00:45:28.344Z,97465.47
2018-12-10T00:47:58.035Z,97475.88
2018-12-10T00:50:27.314Z,97476.51
2018-12-10T00:52:56.762Z,97472.16
2018-12-10T00:55:25.615Z,97471.19
2018-12-10T00:57:54.534Z,97476.59
2018-12-10T01:00:23.491Z,97486.28
2018-12-10T01:02:52.405Z,97468.01
2018-12-10T01:05:21.410Z,97480.71
2018-12-10T01:07:50.321Z,97490.09
2018-12-10T01:10:19.182Z,97497.08
2018-12-10T01:12:48.183Z,97509.78
2018-12-10T01:15:17.110Z,97532.41
2018-12-10T01:17:45.980Z,97545.66
2018-12-10T01:20:14.949Z,97564.42
2018-12-10T01:22:43.832Z,97545.44
2018-12-10T01:25:12.718Z,97555.14
2018-12-10T01:27:42.626Z,97555.89
2018-12-10T01:30:11.528Z,97560.86
2018-12-10T01:32:40.629Z,97574.59
2018-12-10T01:35:09.582Z,97563.70
2018-12-10T01:37:38.496Z,97560.36
2018-12-10T01:40:07.358Z,97577.70
2018-12-10T01:42:36.211Z,97586.78
2018-12-10T01:45:06.511Z,97593.94
2018-12-10T01:47:35.414Z,97594.48
2018-12-10T01:50:04.691Z,97608.14
2018-12-10T01:52:33.609Z,97600.67
2018-12-10T01:55:02.935Z,97608.06
2018-12-10T01:57:31.778Z,97610.45
2018-12-10T02:00:00.674Z,97620.97
2018-12-10T02:02:29.684Z,97634.62
2018-12-10T02:04:58.545Z,97638.35
2018-12-10T02:07:27.436Z,97644.59
2018-12-10T02:09:56.497Z,97645.81
2018-12-10T02:12:25.331Z,97654.56
2018-12-10T02:14:54.145Z,97656.23
2018-12-10T02:17:23.016Z,97668.65
2018-12-10T02:19:51.893Z,97669.02
2018-12-10T02:22:20.729Z,97679.19
2018-12-10T02:24:49.699Z,97685.09
2018-12-10T02:27:18.663Z,97687.05
2018-12-10T02:29:47.516Z,97684.85
2018-12-10T02:32:16.375Z,97688.47
2018-12-10T02:34:45.337Z,97687.48
2018-12-10T02:37:14.219Z,97694.89
2018-12-10T02:39:43.110Z,97701.70
2018-12-10T02:42:11.970Z,97699.19
2018-12-10T02:44:40.803Z,97704.81
2018-12-10T02:47:09.698Z,97710.88
2018-12-10T02:49:38.579Z,97713.69
2018-12-10T02:52:07.562Z,97722.45
2018-12-10T02:54:36.569Z,97720.19
2018-12-10T02:57:05.443Z,97719.63
2018-12-10T02:59:34.348Z,97721.34
2018-12-10T03:02:03.684Z,97724.27
2018-12-10T03:04:34.471Z,97725.57
2018-12-10T03:07:03.377Z,97721.87
2018-12-10T03:09:32.189Z,97721.54
2018-12-10T03:12:01.141Z,97725.27
2018-12-10T03:14:30.056Z,97725.91
2018-12-10T03:16:58.955Z,97727.91
2018-12-10T03:19:27.868Z,97729.25
2018-12-10T03:21:56.714Z,97731.70
2018-12-10T03:24:25.644Z,97730.11
2018-12-10T03:26:54.584Z,97724.29
2018-12-10T03:29:23.741Z,97729.34
2018-12-10T03:31:52.636Z,97736.81
2018-12-10T03:34:21.551Z,97733.11
2018-12-10T03:36:50.462Z,97735.17
2018-12-10T03:39:19.345Z,97737.96
2018-12-10T03:41:48.360Z,97737.71
2018-12-10T03:44:17.269Z,97757.14
2018-12-10T03:46:46.352Z,97750.26
2018-12-10T03:49:15.184Z,97752.20
2018-12-10T03:51:44.018Z,97758.48
2018-12-10T03:54:12.890Z,97773.63
2018-12-10T03:56:41.714Z,97776.17
2018-12-10T03:59:10.571Z,97777.12
2018-12-10T04:01:39.458Z,97777.12
2018-12-10T04:04:08.347Z,97787.77
2018-12-10T04:06:37.506Z,97787.22
2018-12-10T04:09:07.174Z,97789.06
2018-12-10T04:11:36.050Z,97799.82
2018-12-10T04:14:04.962Z,97791.70
2018-12-10T04:16:33.825Z,97792.95
2018-12-10T04:19:02.832Z,97789.51
2018-12-10T04:21:31.726Z,97794.64
2018-12-10T04:24:00.540Z,97786.77
2018-12-10T04:26:29.372Z,97798.31
2018-12-10T04:28:58.355Z,97789.58
2018-12-10T04:31:27.266Z,97792.09
2018-12-10T04:33:56.168Z,97792.52
2018-12-10T04:36:25.058Z,97787.23
2018-12-10T04:38:53.939Z,97784.09
2018-12-10T04:41:22.847Z,97786.23
2018-12-10T04:43:51.830Z,97807.33
2018-12-10T04:46:20.651Z,97808.92
2018-12-10T04:48:49.541Z,97806.53
2018-12-10T04:51:18.399Z,97825.92
2018-12-10T04:53:47.255Z,97821.45
2018-12-10T04:56:16.075Z,97822.00
2018-12-10T04:58:44.975Z,97828.72
2018-12-10T05:01:13.807Z,97823.88
2018-12-10T05:03:42.682Z,97826.81
2018-12-10T05:06:11.565Z,97831.25
2018-12-10T05:08:40.459Z,97831.30
2018-12-10T05:11:09.291Z,97836.19
2018-12-10T05:13:38.211Z,97842.81
2018-12-10T05:16:09.158Z,97840.17
2018-12-10T05:18:38.035Z,97846.36
2018-12-10T05:21:06.914Z,97846.66
2018-12-10T05:23:35.820Z,97845.21
2018-12-10T05:26:04.706Z,97861.02
2018-12-10T05:28:33.558Z,97856.78
2018-12-10T05:31:02.382Z,97862.61
2018-12-10T05:33:32.301Z,97859.97
2018-12-10T05:36:01.194Z,97866.05
2018-12-10T05:38:30.089Z,97874.53
2018-12-10T05:40:59.027Z,97884.80
2018-12-10T05:43:27.850Z,97883.56
2018-12-10T05:45:56.983Z,97884.50
2018-12-10T05:48:27.852Z,97889.24
2018-12-10T05:50:56.744Z,97881.16
2018-12-10T05:53:25.731Z,97874.38
2018-12-10T05:55:54.573Z,97870.94
2018-12-10T05:58:23.465Z,97870.30
2018-12-10T06:00:53.710Z,97877.27
2018-12-10T06:03:22.547Z,97890.69
2018-12-10T06:05:51.520Z,97884.55
2018-12-10T06:08:20.525Z,97886.59
2018-12-10T06:10:49.407Z,97885.30
2018-12-10T06:13:18.427Z,97888.55
2018-12-10T06:15:47.439Z,97903.92
2018-12-10T06:18:16.355Z,97893.05
2018-12-10T06:20:45.178Z,97902.05
2018-12-10T06:23:14.099Z,97910.55
2018-12-10T06:25:42.922Z,97907.19
2018-12-10T06:28:11.749Z,97912.35
2018-12-10T06:30:40.667Z,97911.00
2018-12-10T06:33:09.510Z,97910.80
2018-12-10T06:35:38.332Z,97916.00
2018-12-10T06:38:07.233Z,97921.38
2018-12-10T06:40:36.228Z,97911.67
2018-12-10T06:43:05.059Z,97920.97
2018-12-10T06:45:33.937Z,97923.61
2018-12-10T06:48:02.900Z,97922.98
2018-12-10T06:50:31.736Z,97924.73
2018-12-10T06:53:00.696Z,97919.27
2018-12-10T06:55:29.519Z,97917.71
2018-12-10T06:57:58.367Z,97917.63
2018-12-10T07:00:28.183Z,97928.00
2018-12-10T07:02:56.987Z,97933.89
2018-12-10T07:05:25.957Z,97937.30
2018-12-10T07:07:54.795Z,97934.26
2018-12-10T07:10:26.704Z,97920.00
2018-12-10T07:12:55.591Z,97945.58
2018-12-10T07:15:24.578Z,97943.94
2018-12-10T07:17:53.467Z,97943.37
2018-12-10T07:20:22.310Z,97947.41
2018-12-10T07:22:51.539Z,97955.44
2018-12-10T07:25:20.366Z,97954.09
2018-12-10T07:27:49.241Z,97965.66
2018-12-10T07:30:18.110Z,97958.59
2018-12-10T07:32:47.002Z,97964.39
2018-12-10T07:35:15.856Z,97969.52
2018-12-10T07:37:44.790Z,97962.78
2018-12-10T07:40:13.782Z,97963.72
2018-12-10T07:42:42.640Z,97959.88
2018-12-10T07:45:11.456Z,97960.01
2018-12-10T07:47:40.352Z,97957.86
2018-12-10T07:50:09.367Z,97976.36
2018-12-10T07:52:38.183Z,97969.45
2018-12-10T07:55:07.127Z,97979.74
2018-12-10T07:57:36.401Z,97972.25
2018-12-10T08:00:05.419Z,97978.14
2018-12-10T08:02:34.304Z,97983.34
2018-12-10T08:05:03.222Z,97987.25
2018-12-10T08:07:32.051Z,97996.42
2018-12-10T08:10:00.884Z,98001.75
2018-12-10T08:12:29.781Z,98002.36
2018-12-10T08:14:58.679Z,97985.09
2018-12-10T08:17:28.546Z,97994.63
2018-12-10T08:19:57.477Z,97988.78
2018-12-10T08:22:26.358Z,97988.62
2018-12-10T08:24:55.370Z,97996.99
2018-12-10T08:27:24.228Z,98009.56
2018-12-10T08:29:53.126Z,98017.22
2018-12-10T08:32:22.124Z,98006.50
2018-12-10T08:34:52.182Z,98011.03
2018-12-10T08:37:21.032Z,98016.83
2018-12-10T08:39:49.872Z,98013.09
2018-12-10T08:42:18.713Z,98021.12
2018-12-10T08:44:47.591Z,98012.58
2018-12-10T08:47:16.526Z,98026.61
2018-12-10T08:49:45.495Z,98033.55
2018-12-10T08:52:14.394Z,98025.81
2018-12-10T08:54:43.299Z,98033.55
2018-12-10T08:57:12.423Z,98042.13
2018-12-10T08:59:41.506Z,98037.48
2018-12-10T09:02:10.399Z,98042.26
2018-12-10T09:04:40.611Z,98032.05
2018-12-10T09:07:09.427Z,98037.84
2018-12-10T09:09:38.254Z,98046.12
2018-12-10T09:12:07.150Z,98031.59
2018-12-10T09:14:36.022Z,98045.55
2018-12-10T09:17:04.910Z,98043.36
2018-12-10T09:19:35.046Z,98061.23
2018-12-10T09:22:03.864Z,98052.98
2018-12-10T09:24:32.710Z,98054.67
2018-12-10T09:27:01.650Z,98061.50
2018-12-10T09:29:30.622Z,98058.00
2018-12-10T09:31:59.759Z,98062.38
2018-12-10T09:34:28.590Z,98062.47
2018-12-10T09:36:57.480Z,98064.20
2018-12-10T09:39:26.380Z,98066.63
2018-12-10T09:41:55.272Z,98061.42
2018-12-10T09:44:24.259Z,98062.19
2018-12-10T09:46:58.904Z,98059.35
2018-12-10T09:49:24.115Z,98060.45
2018-12-10T09:51:52.979Z,98064.88
2018-12-10T09:54:21.891Z,98071.58
2018-12-10T09:56:50.815Z,98074.22
2018-12-10T09:59:19.747Z,98075.20
2018-12-10T10:01:48.715Z,98063.28
2018-12-10T10:04:17.634Z,98077.70
2018-12-10T10:06:47.552Z,98081.88
2018-12-10T10:09:16.524Z,98074.32
2018-12-10T10:11:45.418Z,98066.75
2018-12-10T10:14:14.377Z,98055.41
2018-12-10T10:16:43.302Z,98051.89
2018-12-10T10:19:12.335Z,98060.98
2018-12-10T10:21:41.292Z,98058.91
2018-12-10T10:24:10.162Z,98060.91
2018-12-10T10:26:39.106Z,98040.90
2018-12-10T10:29:07.922Z,98050.66
2018-12-10T10:31:36.842Z,98059.53
2018-12-10T10:34:06.088Z,98054.48
2018-12-10T10:36:35.080Z,98060.72
2018-12-10T10:39:05.334Z,98058.96
2018-12-10T10:41:36.197Z,98045.27
2018-12-10T10:44:05.102Z,98057.11
2018-12-10T10:46:34.099Z,98072.72
2018-12-10T10:49:03.191Z,98076.58
2018-12-10T10:51:32.806Z,98076.28
2018-12-10T10:54:01.917Z,98062.51
2018-12-10T10:56:30.804Z,98055.55
2018-12-10T10:58:59.699Z,98055.11
2018-12-10T11:01:34.695Z,98065.88
2018-12-10T11:04:03.811Z,98060.78
2018-12-10T11:06:33.271Z,98062.00
2018-12-10T11:09:02.239Z,98067.86
2018-12-10T11:11:33.147Z,98076.25
2018-12-10T11:14:02.103Z,98084.84
2018-12-10T11:16:31.070Z,98084.38
2018-12-10T11:18:59.996Z,98089.42
2018-12-10T11:21:29.150Z,98082.00
2018-12-10T11:23:58.112Z,98086.17
2018-12-10T11:26:28.053Z,98083.42
2018-12-10T11:28:57.190Z,98088.13
2018-12-10T11:31:26.070Z,98093.41
2018-12-10T11:33:55.443Z,98095.36
2018-12-10T11:36:24.479Z,98094.03
2018-12-10T11:38:57.965Z,98092.39
2018-12-10T11:41:24.338Z,98077.37
2018-12-10T11:43:53.318Z,98080.26
2018-12-10T11:46:22.202Z,98079.36
2018-12-10T11:48:51.260Z,98077.78
2018-12-10T11:51:20.279Z,98080.31
2018-12-10T11:53:49.175Z,98083.23
2018-12-10T11:56:18.138Z,98081.06
2018-12-10T11:58:47.052Z,98102.20
2018-12-10T12:01:15.915Z,98090.63
2018-12-10T12:03:44.771Z,98091.09
2018-12-10T12:06:15.563Z,98100.55
2018-12-10T12:08:44.483Z,98109.45
2018-12-10T12:11:13.323Z,98130.97
2018-12-10T12:13:42.159Z,98147.85
2018-12-10T12:16:11.111Z,98151.13
2018-12-10T12:18:39.985Z,98187.39
2018-12-10T12:21:08.930Z,98176.02
2018-12-10T12:23:37.854Z,98159.27
2018-12-10T12:26:06.726Z,98160.51
2018-12-10T12:28:35.616Z,98163.97
2018-12-10T12:31:04.485Z,98164.69
2018-12-10T12:33:33.374Z,98179.95
2018-12-10T12:36:02.211Z,98176.52
2018-12-10T12:38:31.162Z,98178.78
2018-12-10T12:40:59.986Z,98182.84
2018-12-10T12:43:29.056Z,98181.27
2018-12-10T12:45:57.930Z,98175.40
2018-12-10T12:48:26.766Z,98172.01
2018-12-10T12:50:55.687Z,98157.02
2018-12-10T12:53:24.617Z,98170.98
2018-12-10T12:55:53.569Z,98149.01
2018-12-10T12:58:22.488Z,98158.48
2018-12-10T13:00:53.431Z,98145.29
2018-12-10T13:03:22.304Z,98145.27
2018-12-10T13:05:51.312Z,98151.80
2018-12-10T13:08:20.198Z,98150.18
2018-12-10T13:10:49.035Z,98134.05
2018-12-10T13:13:17.915Z,98127.25
2018-12-10T13:15:47.008Z,98114.73
2018-12-10T13:18:15.871Z,98106.47
2018-12-10T13:20:44.975Z,98098.28
2018-12-10T13:23:13.863Z,98092.58
2018-12-10T13:25:42.823Z,98088.22
2018-12-10T13:28:11.652Z,98084.28
2018-12-10T13:30:40.591Z,98079.82
2018-12-10T13:33:09.485Z,98089.35
2018-12-10T13:35:38.408Z,98075.81
2018-12-10T13:38:12.338Z,98068.77
2018-12-10T13:40:38.286Z,98075.80
2018-12-10T13:43:07.221Z,98081.37
2018-12-10T13:45:36.090Z,98085.20
2018-12-10T13:48:05.197Z,98082.38
2018-12-10T13:50:34.108Z,98080.25
2018-12-10T13:53:02.939Z,98091.34
2018-12-10T13:55:31.769Z,98099.55
2018-12-10T13:58:00.669Z,98101.30
2018-12-10T14:00:30.572Z,98094.45
2018-12-10T14:03:03.598Z,98090.55
2018-12-10T14:05:32.442Z,98090.09
2018-12-10T14:08:01.335Z,98097.20
2018-12-10T14:10:30.446Z,98107.07
2018-12-10T14:12:59.320Z,98112.98
2018-12-10T14:15:28.238Z,98113.91
2018-12-10T14:17:57.231Z,98123.00
2018-12-10T14:20:26.110Z,98122.20
2018-12-10T14:22:54.949Z,98128.47
2018-12-10T14:25:25.522Z,98128.03
2018-12-10T14:27:54.491Z,98134.39
2018-12-10T14:30:23.627Z,98134.85
2018-12-10T14:32:52.487Z,98146.67
2018-12-10T14:35:21.411Z,98135.52
2018-12-10T14:37:50.275Z,98144.74
2018-12-10T14:40:19.282Z,98150.83
2018-12-10T14:42:52.314Z,98154.15
2018-12-10T14:45:21.300Z,98148.51
2018-12-10T14:47:52.765Z,98149.60
2018-12-10T14:50:21.940Z,98144.33
2018-12-10T14:52:51.196Z,98150.73
2018-12-10T14:55:20.144Z,98159.70
2018-12-10T14:57:49.136Z,98164.95
2018-12-10T15:00:17.967Z,98163.32
2018-12-10T15:02:47.166Z,98172.25
2018-12-10T15:05:16.887Z,98169.37
2018-12-10T15:07:45.823Z,98177.90
2018-12-10T15:10:14.830Z,98166.95
2018-12-10T15:12:43.750Z,98179.55
2018-12-10T15:15:13.136Z,98175.08
2018-12-10T15:17:42.048Z,98165.23
2018-12-10T15:20:13.625Z,98165.88
2018-12-10T15:22:42.795Z,98161.91
2018-12-10T15:25:11.715Z,98157.36
2018-12-10T15:27:40.612Z,98168.66
2018-12-10T15:30:11.985Z,98174.64
2018-12-10T15:32:40.841Z,98175.19
2018-12-10T15:35:09.957Z,98170.95
2018-12-10T15:37:38.887Z,98181.41
2018-12-10T15:40:08.242Z,98172.58
2018-12-10T15:42:37.186Z,98170.70
2018-12-10T15:45:07.201Z,98179.02
2018-12-10T15:47:36.172Z,98178.72
2018-12-10T15:50:05.283Z,98175.73
2018-12-10T15:52:34.183Z,98177.07
2018-12-10T15:55:03.099Z,98175.45
2018-12-10T15:57:31.966Z,98173.52
2018-12-10T16:00:00.843Z,98162.48
2018-12-10T16:02:29.791Z,98161.39
2018-12-10T16:04:58.631Z,98163.25
2018-12-10T16:07:27.523Z,98168.34
2018-12-10T16:09:56.419Z,98160.52
2018-12-10T16:12:25.307Z,98163.09
2018-12-10T16:14:54.143Z,98154.21
2018-12-10T16:17:23.010Z,98153.69
2018-12-10T16:19:51.855Z,98157.16
2018-12-10T16:22:20.763Z,98156.04
2018-12-10T16:24:49.714Z,98160.55
2018-12-10T16:27:18.831Z,98156.22
2018-12-10T16:29:47.917Z,98155.13
2018-12-10T16:32:16.873Z,98166.38
2018-12-10T16:34:45.767Z,98159.86
2018-12-10T16:37:14.650Z,98144.30
2018-12-10T16:39:43.858Z,98145.64
2018-12-10T16:42:12.994Z,98140.57
2018-12-10T16:44:41.976Z,98134.61
2018-12-10T16:47:11.272Z,98128.65
2018-12-10T16:49:40.086Z,98125.16
2018-12-10T16:52:08.996Z,98120.31
2018-12-10T16:54:37.963Z,98128.63
2018-12-10T16:57:06.789Z,98115.91
2018-12-10T16:59:35.645Z,98120.64
2018-12-10T17:02:04.546Z,98124.72
2018-12-10T17:04:33.443Z,98130.64
2018-12-10T17:07:02.307Z,98130.89
2018-12-10T17:09:31.348Z,98121.47
2018-12-10T17:12:00.750Z,98114.69
2018-12-10T17:14:29.905Z,98119.18
2018-12-10T17:16:58.749Z,98125.02
2018-12-10T17:19:27.599Z,98123.67
2018-12-10T17:21:56.465Z,98119.03
2018-12-10T17:24:25.395Z,98103.86
2018-12-10T17:26:54.275Z,98110.04
2018-12-10T17:29:23.149Z,98115.12
2018-12-10T17:31:52.013Z,98107.38
2018-12-10T17:34:20.906Z,98111.13
2018-12-10T17:36:49.735Z,98107.35
2018-12-10T17:39:19.747Z,98104.66
2018-12-10T17:41:48.711Z,98104.05
2018-12-10T17:44:17.628Z,98098.89
2018-12-10T17:46:46.504Z,98098.38
2018-12-10T17:49:15.326Z,98085.45
2018-12-10T17:51:44.171Z,98090.25
2018-12-10T17:54:13.246Z,98095.88
2018-12-10T17:56:43.780Z,98100.49
2018-12-10T17:59:13.024Z,98095.98
2018-12-10T18:01:41.914Z,98103.98
2018-12-10T18:04:10.810Z,98103.77
2018-12-10T18:06:39.739Z,98091.41
2018-12-10T18:09:08.688Z,98076.39
2018-12-10T18:11:39.542Z,98075.08
2018-12-10T18:14:08.388Z,98079.30
2018-12-10T18:16:37.286Z,98077.16
2018-12-10T18:19:06.376Z,98073.85
2018-12-10T18:21:35.363Z,98071.20
2018-12-10T18:24:04.425Z,98074.62
2018-12-10T18:26:33.335Z,98068.11
2018-12-10T18:29:02.163Z,98078.91
2018-12-10T18:31:31.451Z,98077.56
2018-12-10T18:34:01.222Z,98096.97
2018-12-10T18:36:30.317Z,98170.20
2018-12-10T18:38:59.222Z,98171.35
2018-12-10T18:41:28.231Z,98158.07
2018-12-10T18:43:57.143Z,98139.45
2018-12-10T18:46:26.015Z,98151.57
2018-12-10T18:48:54.943Z,98160.41
2018-12-10T18:51:23.939Z,98161.20
2018-12-10T18:53:52.804Z,98154.50
2018-12-10T18:56:21.775Z,98159.59
2018-12-10T18:58:50.744Z,98135.48
2018-12-10T19:01:19.729Z,98123.98
2018-12-10T19:03:48.691Z,98123.44
2018-12-10T19:06:17.661Z,98114.34
2018-12-10T19:08:48.559Z,98122.92
2018-12-10T19:11:17.738Z,98118.36
2018-12-10T19:13:49.991Z,98122.09
2018-12-10T19:16:17.765Z,98122.88
2018-12-10T19:18:46.674Z,98129.58
2018-12-10T19:21:15.626Z,98142.46
2018-12-10T19:23:44.718Z,98147.00
2018-12-10T19:26:13.668Z,98130.11
2018-12-10T19:28:42.525Z,98114.81
2018-12-10T19:31:11.395Z,98121.52
2018-12-10T19:33:40.280Z,98116.39
2018-12-10T19:36:09.163Z,98099.77
2018-12-10T19:38:38.077Z,98107.00
2018-12-10T19:41:06.987Z,98108.87
2018-12-10T19:43:35.840Z,98116.93
2018-12-10T19:46:04.856Z,98112.38
2018-12-10T19:48:33.699Z,98113.45
2018-12-10T19:51:02.651Z,98118.01
2018-12-10T19:53:31.646Z,98127.66
2018-12-10T19:56:00.563Z,98120.42
2018-12-10T19:58:29.727Z,98129.54
2018-12-10T20:00:58.581Z,98129.02
2018-12-10T20:03:27.510Z,98132.23
2018-12-10T20:06:01.874Z,98128.75
2018-12-10T20:08:30.999Z,98122.86
2018-12-10T20:10:59.894Z,98127.18
2018-12-10T20:13:28.782Z,98124.52
2018-12-10T20:15:57.614Z,98120.23
2018-12-10T20:18:26.713Z,98119.44
2018-12-10T20:20:55.682Z,98107.12
2018-12-10T20:23:24.530Z,98109.53
2018-12-10T20:25:53.420Z,98115.41
2018-12-10T20:28:22.416Z,98117.03
2018-12-10T20:30:51.783Z,98115.16
2018-12-10T20:33:20.895Z,98113.79
2018-12-10T20:35:49.929Z,98114.58
2018-12-10T20:38:19.826Z,98110.80
2018-12-10T20:40:48.709Z,98110.48
2018-12-10T20:43:17.619Z,98118.78
2018-12-10T20:45:46.511Z,98119.03
2018-12-10T20:48:15.339Z,98125.97
2018-12-10T20:50:44.309Z,98123.53
2018-12-10T20:53:13.290Z,98125.11
2018-12-10T20:55:42.221Z,98119.75
2018-12-10T20:58:11.061Z,98127.23
2018-12-10T21:00:39.919Z,98131.79
2018-12-10T21:03:08.935Z,98124.56
2018-12-10T21:05:41.955Z,98127.58
2018-12-10T21:08:10.850Z,98124.14
2018-12-10T21:10:39.717Z,98128.97
2018-12-10T21:13:08.720Z,98132.75
2018-12-10T21:15:37.632Z,98139.45
2018-12-10T21:18:06.462Z,98137.17
2018-12-10T21:20:35.310Z,98147.08
2018-12-10T21:23:04.379Z,98139.30
2018-12-10T21:25:34.284Z,98145.48
2018-12-10T21:28:03.216Z,98154.33
2018-12-10T21:30:32.150Z,98153.84
2018-12-10T21:33:00.991Z,98152.53
2018-12-10T21:35:29.984Z,98161.30
2018-12-10T21:37:58.820Z,98162.69
2018-12-10T21:40:27.749Z,98164.30
2018-12-10T21:42:56.666Z,98169.66
2018-12-10T21:45:25.515Z,98171.78
2018-12-10T21:47:54.447Z,98165.31
2018-12-10T21:50:23.394Z,98177.13
2018-12-10T21:52:52.271Z,98177.95
2018-12-10T21:55:21.263Z,98174.73
2018-12-10T21:57:50.160Z,98176.61
2018-12-10T22:00:19.152Z,98178.20
2018-12-10T22:02:48.347Z,98181.68
2018-12-10T22:05:17.247Z,98174.16
2018-12-10T22:07:46.225Z,98172.55
2018-12-10T22:10:15.243Z,98168.54
2018-12-10T22:12:44.146Z,98173.11
2018-12-10T22:15:13.250Z,98184.36
2018-12-10T22:17:42.094Z,98184.91
2018-12-10T22:20:11.052Z,98177.39
2018-12-10T22:22:39.914Z,98181.09
2018-12-10T22:25:08.894Z,98171.41
2018-12-10T22:27:37.796Z,98164.19
2018-12-10T22:30:07.568Z,98159.90
2018-12-10T22:32:36.688Z,98158.09
2018-12-10T22:35:06.084Z,98150.56
2018-12-10T22:37:34.998Z,98151.63
2018-12-10T22:40:04.277Z,98153.00
2018-12-10T22:42:33.272Z,98153.81
2018-12-10T22:45:02.238Z,98147.62
2018-12-10T22:47:31.270Z,98143.59
2018-12-10T22:50:00.124Z,98143.36
2018-12-10T22:52:29.065Z,98138.83
2018-12-10T22:54:57.906Z,98133.19
2018-12-10T22:57:26.920Z,98147.37
2018-12-10T22:59:55.880Z,98145.48
2018-12-10T23:02:24.923Z,98142.52
2018-12-10T23:04:53.826Z,98147.63
2018-12-10T23:07:24.752Z,98140.92
2018-12-10T23:09:53.663Z,98151.36
2018-12-10T23:12:22.486Z,98150.02
2018-12-10T23:14:51.387Z,98160.21
2018-12-10T23:17:20.243Z,98156.98
2018-12-10T23:19:49.470Z,98152.86
2018-12-10T23:22:18.348Z,98155.07
2018-12-10T23:24:47.191Z,98151.54
2018-12-10T23:27:16.094Z,98152.08
2018-12-10T23:29:44.914Z,98147.81
2018-12-10T23:32:13.753Z,98144.81
2018-12-10T23:34:42.690Z,98145.63
2018-12-10T23:37:11.592Z,98137.56
2018-12-10T23:39:40.499Z,98130.09
2018-12-10T23:42:09.319Z,98130.91
2018-12-10T23:44:43.503Z,98135.70
2018-12-10T23:47:12.479Z,98130.84
2018-12-10T23:49:41.312Z,98127.34
2018-12-10T23:52:10.255Z,98115.27
2018-12-10T23:54:39.087Z,98117.13
2018-12-10T23:57:07.931Z,98123.84
2018-12-10T23:59:36.834Z,98133.53
